Time;durP1;ratioP1;P1;durP2;ratioP2;P2;SDS_P1;SDS_P2;PMS_P1;PMS_P2;Temp;Humidity;BMP_temperature;BMP_pressure;BME280_temperature;BME280_humidity;BME280_pressure;Samples;Min_cycle;Max_cycle;Signal;HPM_P1;HPM_P2
2022/05/09 00:01:48;;;;;;;;;;;;;;;14.82;58.88;101767.88;4417480;32;20091;-70
2022/05/09 00:04:13;;;;;;;;;;;;;;;14.83;59.02;101769.47;4418104;32;20652;-70
2022/05/09 00:06:39;;;;;;;;;;;;;;;14.72;59.19;101768.94;4413721;32;19993;-70
2022/05/09 00:09:05;;;;;;;;;;;;;;;14.63;59.22;101759.47;4415660;32;20005;-70
2022/05/09 00:11:31;;;;;;;;;;;;;;;14.52;59.99;101764.59;4417807;32;19992;-70
2022/05/09 00:13:56;;;;;;;;;;;;;;;14.56;59.76;101768.13;4414695;32;20004;-70
2022/05/09 00:16:22;;;;;;;;;;;;;;;14.35;60.59;101760.13;4417768;32;20354;-70
2022/05/09 00:18:47;;;;;;;;;;;;;;;14.38;60.53;101759.25;4416642;32;20005;-70
2022/05/09 00:21:13;;;;;;;;;;;;;;;14.23;60.81;101746.66;4416422;32;19958;-70
2022/05/09 00:23:38;;;;;;;;;;;;;;;14.19;61.12;101751.56;4417298;32;20000;-70
2022/05/09 00:26:04;;;;;;;;;;;;;;;14.22;61.14;101742.19;4417932;32;19989;-70
2022/05/09 00:28:29;;;;;;;;;;;;;;;14.18;61.20;101752.81;4415455;32;20317;-70
2022/05/09 00:30:55;;;;;;;;;;;;;;;14.16;61.13;101752.44;4414079;32;19953;-70
2022/05/09 00:33:21;;;;;;;;;;;;;;;14.08;61.48;101748.97;4415159;32;20037;-70
2022/05/09 00:35:46;;;;;;;;;;;;;;;14.01;61.31;101744.28;4414868;32;20319;-70
2022/05/09 00:38:13;;;;;;;;;;;;;;;13.95;61.33;101750.91;4418215;32;19962;-70
2022/05/09 00:40:39;;;;;;;;;;;;;;;13.95;61.44;101743.22;4415977;32;19976;-70
2022/05/09 00:43:24;;;;;;;;;;;;;;;13.96;61.37;101746.81;4415089;32;20009;-70
2022/05/09 00:45:50;;;;;;;;;;;;;;;13.90;61.47;101743.72;4413753;32;20437;-70
2022/05/09 00:48:16;;;;;;;;;;;;;;;13.86;61.68;101739.38;4402950;32;19980;-70
2022/05/09 00:50:42;;;;;;;;;;;;;;;13.80;61.46;101735.47;4419409;32;19957;-70
2022/05/09 00:53:08;;;;;;;;;;;;;;;13.66;61.65;101733.72;4420900;32;20001;-70
2022/05/09 00:55:40;;;;;;;;;;;;;;;13.74;61.52;101732.34;4418554;32;19967;-70
2022/05/09 00:58:25;;;;;;;;;;;;;;;13.73;61.72;101729.97;4416097;32;19969;-70
2022/05/09 01:00:52;;;;;;;;;;;;;;;13.79;61.38;101728.22;4418067;32;20517;-70
2022/05/09 01:03:23;;;;;;;;;;;;;;;13.70;61.72;101730.81;4418681;32;20053;-70
2022/05/09 01:05:51;;;;;;;;;;;;;;;13.69;61.62;101724.34;4417604;32;19993;-70
2022/05/09 01:08:17;;;;;;;;;;;;;;;13.53;61.91;101717.87;4415389;32;19987;-70
2022/05/09 01:10:43;;;;;;;;;;;;;;;13.61;61.66;101720.09;4418182;32;19973;-70
2022/05/09 01:13:11;;;;;;;;;;;;;;;13.57;61.73;101715.75;4418741;32;20303;-70
2022/05/09 01:15:39;;;;;;;;;;;;;;;13.57;61.73;101710.88;4417088;32;19961;-70
2022/05/09 01:18:06;;;;;;;;;;;;;;;13.53;61.64;101703.72;4419890;32;20409;-70
2022/05/09 01:20:33;;;;;;;;;;;;;;;13.41;62.44;101696.66;4416315;32;20332;-70
2022/05/09 01:22:59;;;;;;;;;;;;;;;13.40;62.71;101695.09;4414893;32;20056;-70
2022/05/09 01:25:25;;;;;;;;;;;;;;;13.34;63.12;101699.66;4418403;32;19969;-70
2022/05/09 01:27:51;;;;;;;;;;;;;;;13.35;63.19;101698.41;4418510;32;20377;-70
2022/05/09 01:30:19;;;;;;;;;;;;;;;13.31;63.38;101703.34;4420469;32;19967;-70
2022/05/09 01:32:49;;;;;;;;;;;;;;;13.26;63.18;101692.53;4420026;32;19996;-70
2022/05/09 01:35:20;;;;;;;;;;;;;;;13.32;63.40;101690.78;4400787;32;19954;-70
2022/05/09 01:37:47;;;;;;;;;;;;;;;13.31;63.51;101685.56;4414298;32;19997;-70
2022/05/09 01:40:13;;;;;;;;;;;;;;;13.31;63.56;101685.56;4419433;32;19957;-70
2022/05/09 01:42:41;;;;;;;;;;;;;;;13.28;63.67;101673.13;4419036;32;19972;-70
2022/05/09 01:45:07;;;;;;;;;;;;;;;13.26;63.51;101667.09;4416674;32;19997;-70
2022/05/09 01:50:19;;;;;;;;;;;;;;;13.21;63.97;101672.47;4417923;32;20477;-70
2022/05/09 01:52:44;;;;;;;;;;;;;;;13.18;63.92;101674.13;4417686;32;19999;-70
2022/05/09 01:55:10;;;;;;;;;;;;;;;13.22;63.78;101662.75;4416159;32;20054;-70
2022/05/09 01:57:37;;;;;;;;;;;;;;;13.22;63.82;101672.03;4417600;32;19965;-70
2022/05/09 02:00:05;;;;;;;;;;;;;;;13.10;64.28;101669.84;4418528;32;20071;-70
2022/05/09 02:02:31;;;;;;;;;;;;;;;13.14;64.04;101675.44;4419420;32;20401;-70
2022/05/09 02:04:57;;;;;;;;;;;;;;;12.99;64.37;101674.91;4415762;32;19965;-70
2022/05/09 02:07:23;;;;;;;;;;;;;;;13.09;64.32;101673.91;4416749;32;20009;-70
2022/05/09 02:09:52;;;;;;;;;;;;;;;13.10;64.63;101677.53;4417684;32;20342;-70
2022/05/09 02:12:19;;;;;;;;;;;;;;;13.05;64.53;101676.00;4416341;32;20021;-70
2022/05/09 02:14:45;;;;;;;;;;;;;;;13.07;64.62;101675.59;4416701;32;19969;-70
2022/05/09 02:17:11;;;;;;;;;;;;;;;13.04;64.62;101667.97;4404104;32;20004;-70
2022/05/09 02:19:37;;;;;;;;;;;;;;;13.04;64.70;101676.44;4415477;32;20001;-70
2022/05/09 02:22:03;;;;;;;;;;;;;;;13.10;64.62;101667.00;4417143;32;19984;-70
2022/05/09 02:24:29;;;;;;;;;;;;;;;13.06;64.58;101668.31;4416484;32;20003;-70
2022/05/09 02:26:55;;;;;;;;;;;;;;;13.06;64.67;101671.94;4417054;32;20045;-70
2022/05/09 02:29:20;;;;;;;;;;;;;;;13.46;63.52;101664.25;4415842;32;19993;-70
2022/05/09 02:31:46;;;;;;;;;;;;;;;13.57;63.06;101665.62;4418052;32;19972;-70
2022/05/09 02:34:12;;;;;;;;;;;;;;;13.34;63.84;101667.75;4417183;32;20692;-70
2022/05/09 02:36:37;;;;;;;;;;;;;;;13.25;63.68;101668.34;4415615;32;20001;-70
2022/05/09 02:39:04;;;;;;;;;;;;;;;13.67;62.62;101666.63;4415185;32;20008;-70
2022/05/09 02:41:30;;;;;;;;;;;;;;;13.84;62.03;101663.41;4413874;32;20007;-70
2022/05/09 02:43:57;;;;;;;;;;;;;;;13.83;61.98;101653.34;4414917;32;19953;-70
2022/05/09 02:46:22;;;;;;;;;;;;;;;13.74;62.12;101663.66;4416202;32;21223;-70
2022/05/09 02:48:49;;;;;;;;;;;;;;;13.97;61.30;101667.13;4415610;32;19997;-70
2022/05/09 02:51:14;;;;;;;;;;;;;;;13.87;61.57;101661.75;4419122;32;20529;-70
2022/05/09 02:53:40;;;;;;;;;;;;;;;14.08;60.73;101647.88;4414370;32;19986;-70
2022/05/09 02:56:06;;;;;;;;;;;;;;;13.99;60.95;101646.87;4416361;32;19950;-70
2022/05/09 02:58:33;;;;;;;;;;;;;;;14.02;61.05;101644.00;4414456;32;20346;-70
2022/05/09 03:00:58;;;;;;;;;;;;;;;14.03;60.99;101642.75;4417346;32;19990;-70
2022/05/09 03:06:09;;;;;;;;;;;;;;;13.90;60.41;101635.41;4417611;32;19957;-70
2022/05/09 03:08:35;;;;;;;;;;;;;;;13.89;59.29;101633.78;4418260;32;20256;-70
2022/05/09 03:11:01;;;;;;;;;;;;;;;13.87;59.60;101630.63;4416752;32;20424;-70
2022/05/09 03:13:26;;;;;;;;;;;;;;;13.82;59.72;101631.13;4418831;32;20385;-70
2022/05/09 03:15:52;;;;;;;;;;;;;;;13.74;59.88;101624.84;4415457;32;19953;-70
2022/05/09 03:18:20;;;;;;;;;;;;;;;13.56;60.47;101621.62;4417030;32;19973;-70
2022/05/09 03:20:46;;;;;;;;;;;;;;;13.58;60.33;101619.16;4415597;32;20400;-70
2022/05/09 03:23:12;;;;;;;;;;;;;;;13.83;59.73;101613.72;4417336;32;19964;-70
2022/05/09 03:25:38;;;;;;;;;;;;;;;14.12;58.74;101613.84;4416098;32;20189;-70
2022/05/09 03:28:06;;;;;;;;;;;;;;;13.81;59.38;101609.75;4415808;32;19957;-70
2022/05/09 03:30:32;;;;;;;;;;;;;;;13.56;60.30;101612.34;4419300;32;20024;-70
2022/05/09 03:32:58;;;;;;;;;;;;;;;13.46;60.47;101611.34;4415360;32;19995;-70
2022/05/09 03:35:24;;;;;;;;;;;;;;;13.51;60.42;101596.69;4417299;32;19965;-70
2022/05/09 03:37:50;;;;;;;;;;;;;;;13.52;60.42;101603.94;4414985;32;20409;-70
2022/05/09 03:40:15;;;;;;;;;;;;;;;13.46;60.87;101590.75;4413950;32;20030;-70
2022/05/09 03:42:41;;;;;;;;;;;;;;;13.53;60.58;101599.09;4413719;32;20014;-70
2022/05/09 03:45:07;;;;;;;;;;;;;;;13.52;60.64;101594.66;4417888;32;20278;-70
2022/05/09 03:47:32;;;;;;;;;;;;;;;13.48;60.62;101594.75;4416778;32;19961;-70
2022/05/09 03:49:58;;;;;;;;;;;;;;;13.31;61.34;101600.75;4417045;32;20326;-70
2022/05/09 03:52:24;;;;;;;;;;;;;;;13.34;61.18;101600.69;4414512;32;19984;-70
2022/05/09 03:54:52;;;;;;;;;;;;;;;13.28;61.18;101593.97;4415804;32;20005;-70
2022/05/09 03:57:17;;;;;;;;;;;;;;;13.34;61.00;101586.56;4413801;32;20487;-70
2022/05/09 03:59:43;;;;;;;;;;;;;;;13.30;61.17;101579.37;4418409;32;20358;-70
2022/05/09 04:02:10;;;;;;;;;;;;;;;13.34;61.09;101578.09;4413674;32;19957;-71
2022/05/09 04:04:38;;;;;;;;;;;;;;;13.25;61.17;101571.41;4417675;32;20009;-70
2022/05/09 04:07:04;;;;;;;;;;;;;;;13.22;61.00;101570.25;4415439;32;19957;-70
2022/05/09 04:09:29;;;;;;;;;;;;;;;13.11;61.41;101566.88;4416752;32;19967;-70
2022/05/09 04:11:55;;;;;;;;;;;;;;;13.24;61.02;101572.66;4420067;32;19969;-70
2022/05/09 04:17:10;;;;;;;;;;;;;;;13.29;60.57;101560.84;4416676;32;20004;-70
2022/05/09 04:19:36;;;;;;;;;;;;;;;13.21;60.88;101556.56;4416912;32;20078;-70
2022/05/09 04:22:02;;;;;;;;;;;;;;;13.07;61.60;101557.66;4416667;32;20058;-70
2022/05/09 04:24:30;;;;;;;;;;;;;;;13.15;61.25;101559.13;4418429;32;19997;-70
2022/05/09 04:26:55;;;;;;;;;;;;;;;13.11;61.42;101537.81;4419877;32;19979;-70
2022/05/09 04:29:21;;;;;;;;;;;;;;;13.17;61.05;101544.56;4419467;32;19981;-70
2022/05/09 04:31:47;;;;;;;;;;;;;;;13.05;61.34;101545.22;4419221;32;20341;-70
2022/05/09 04:34:12;;;;;;;;;;;;;;;13.09;61.60;101543.09;4420464;32;20417;-70
2022/05/09 04:36:39;;;;;;;;;;;;;;;13.24;61.15;101531.06;4419005;32;20397;-70
2022/05/09 04:39:05;;;;;;;;;;;;;;;13.05;61.95;101533.91;4419609;32;20062;-70
2022/05/09 04:41:32;;;;;;;;;;;;;;;13.07;61.27;101529.41;4420788;32;20928;-70
2022/05/09 04:43:58;;;;;;;;;;;;;;;13.08;61.54;101524.56;4417486;32;20343;-70
2022/05/09 04:46:23;;;;;;;;;;;;;;;13.14;61.52;101529.28;4419073;32;20113;-70
2022/05/09 04:48:49;;;;;;;;;;;;;;;13.19;61.23;101522.31;4414891;32;20847;-70
2022/05/09 04:51:15;;;;;;;;;;;;;;;13.05;61.79;101523.41;4418251;32;19965;-70
2022/05/09 04:53:41;;;;;;;;;;;;;;;13.55;60.27;101523.06;4420005;32;19997;-70
2022/05/09 04:56:08;;;;;;;;;;;;;;;13.33;60.57;101528.44;4416585;32;19973;-70
2022/05/09 04:58:34;;;;;;;;;;;;;;;13.45;60.00;101516.44;4405816;32;19945;-70
2022/05/09 05:00:59;;;;;;;;;;;;;;;13.34;60.63;101518.72;4416781;32;20353;-70
2022/05/09 05:03:25;;;;;;;;;;;;;;;13.33;60.59;101519.16;4417140;32;19961;-70
2022/05/09 05:05:52;;;;;;;;;;;;;;;13.41;60.41;101521.37;4415541;32;19993;-70
2022/05/09 05:08:18;;;;;;;;;;;;;;;13.46;60.36;101517.22;4418980;32;19962;-70
2022/05/09 05:10:44;;;;;;;;;;;;;;;13.64;59.53;101524.06;4416873;32;20012;-70
2022/05/09 05:13:12;;;;;;;;;;;;;;;13.60;59.54;101522.56;4401704;32;19993;-70
2022/05/09 05:15:38;;;;;;;;;;;;;;;13.81;59.02;101513.56;4418224;32;19997;-70
2022/05/09 05:18:04;;;;;;;;;;;;;;;14.26;57.51;101519.28;4418144;32;19975;-70
2022/05/09 05:20:30;;;;;;;;;;;;;;;13.99;58.49;101522.38;4419081;32;20297;-70
2022/05/09 05:22:56;;;;;;;;;;;;;;;14.00;58.10;101521.91;4417477;32;20772;-70
2022/05/09 05:25:22;;;;;;;;;;;;;;;14.51;57.33;101513.75;4416016;32;20000;-70
2022/05/09 05:27:48;;;;;;;;;;;;;;;14.28;57.45;101509.09;4416980;32;20081;-70
2022/05/09 05:30:14;;;;;;;;;;;;;;;14.25;57.94;101501.50;4418568;32;20024;-70
2022/05/09 05:32:41;;;;;;;;;;;;;;;14.40;57.32;101501.91;4418400;32;21108;-70
2022/05/09 05:35:10;;;;;;;;;;;;;;;14.33;57.11;101496.44;4418580;32;20013;-70
2022/05/09 05:37:35;;;;;;;;;;;;;;;14.48;57.04;101491.97;4415702;32;20036;-70
2022/05/09 05:40:01;;;;;;;;;;;;;;;14.69;56.24;101491.34;4420540;32;20015;-70
2022/05/09 05:42:27;;;;;;;;;;;;;;;14.75;55.65;101490.34;4414755;32;19965;-70
2022/05/09 05:44:52;;;;;;;;;;;;;;;14.79;55.91;101490.25;4417859;32;19970;-70
2022/05/09 05:47:20;;;;;;;;;;;;;;;15.08;55.27;101494.63;4417220;32;20016;-70
2022/05/09 05:49:46;;;;;;;;;;;;;;;15.04;55.57;101499.59;4418229;32;19949;-70
2022/05/09 05:52:12;;;;;;;;;;;;;;;14.95;55.51;101496.66;4417191;32;20292;-70
2022/05/09 05:54:40;;;;;;;;;;;;;;;15.13;55.48;101494.06;4415015;32;20403;-70
2022/05/09 05:57:07;;;;;;;;;;;;;;;15.22;55.22;101499.06;4417350;32;19973;-70
2022/05/09 05:59:33;;;;;;;;;;;;;;;15.28;55.04;101495.22;4420367;32;19998;-70
2022/05/09 06:01:58;;;;;;;;;;;;;;;15.32;54.82;101506.44;4417657;32;19957;-70
2022/05/09 06:04:24;;;;;;;;;;;;;;;15.38;54.33;101499.00;4417589;32;19965;-70
2022/05/09 06:06:49;;;;;;;;;;;;;;;15.56;54.54;101504.91;4420044;32;19981;-70
2022/05/09 06:09:15;;;;;;;;;;;;;;;15.75;53.92;101506.69;4416274;32;19998;-70
2022/05/09 06:11:41;;;;;;;;;;;;;;;15.87;53.35;101509.50;4418410;32;20555;-70
2022/05/09 06:14:07;;;;;;;;;;;;;;;16.10;53.07;101507.56;4417616;32;19968;-70
2022/05/09 06:16:33;;;;;;;;;;;;;;;15.98;53.19;101511.22;4417199;32;19958;-70
2022/05/09 06:19:00;;;;;;;;;;;;;;;16.15;53.02;101507.75;4418642;32;20341;-70
2022/05/09 06:21:26;;;;;;;;;;;;;;;16.25;52.32;101502.94;4417061;32;19977;-70
2022/05/09 06:23:52;;;;;;;;;;;;;;;16.34;52.04;101503.03;4420871;32;20032;-70
2022/05/09 06:26:18;;;;;;;;;;;;;;;16.47;52.09;101496.06;4401679;32;20023;-70
2022/05/09 06:28:43;;;;;;;;;;;;;;;16.69;51.42;101502.56;4417518;32;20339;-70
2022/05/09 06:31:09;;;;;;;;;;;;;;;16.96;51.08;101508.44;4417962;32;20343;-70
2022/05/09 06:33:34;;;;;;;;;;;;;;;17.10;50.43;101510.75;4415345;32;19954;-70
2022/05/09 06:36:01;;;;;;;;;;;;;;;17.51;49.56;101503.88;4411710;32;19965;-70
2022/05/09 06:38:27;;;;;;;;;;;;;;;17.20;50.03;101509.56;4411204;32;19977;-70
2022/05/09 06:40:54;;;;;;;;;;;;;;;17.37;49.63;101495.88;4411652;32;20050;-70
2022/05/09 06:43:22;;;;;;;;;;;;;;;17.41;49.69;101503.03;4412856;32;19990;-70
2022/05/09 06:45:49;;;;;;;;;;;;;;;17.34;49.72;101503.28;4409559;32;20054;-70
2022/05/09 06:48:15;;;;;;;;;;;;;;;17.44;50.02;101502.13;4413386;32;19979;-70
2022/05/09 06:50:40;;;;;;;;;;;;;;;17.50;49.30;101490.91;4412875;32;20019;-70
2022/05/09 06:53:07;;;;;;;;;;;;;;;17.57;49.34;101488.56;4411955;32;19997;-70
2022/05/09 06:55:32;;;;;;;;;;;;;;;17.61;49.41;101485.56;4409917;32;20000;-70
2022/05/09 06:57:58;;;;;;;;;;;;;;;17.63;49.22;101498.09;4407348;32;20041;-70
2022/05/09 07:00:24;;;;;;;;;;;;;;;17.59;49.50;101493.78;4409801;32;20260;-70
2022/05/09 07:02:50;;;;;;;;;;;;;;;17.70;49.40;101494.13;4407504;32;20039;-70
2022/05/09 07:05:17;;;;;;;;;;;;;;;17.50;49.60;101503.09;4408643;32;19961;-70
2022/05/09 07:07:43;;;;;;;;;;;;;;;17.32;50.34;101505.03;4406447;32;20084;-70
2022/05/09 07:10:09;;;;;;;;;;;;;;;17.44;50.20;101498.47;4408921;32;20032;-70
2022/05/09 07:12:42;;;;;;;;;;;;;;;17.46;50.05;101493.12;4406743;32;19962;-70
2022/05/09 07:15:08;;;;;;;;;;;;;;;17.41;50.13;101496.53;4403918;32;19996;-69
2022/05/09 07:17:33;;;;;;;;;;;;;;;17.41;50.12;101488.78;4391667;32;20000;-70
2022/05/09 07:19:59;;;;;;;;;;;;;;;17.34;50.02;101494.75;4409714;32;20004;-70
2022/05/09 07:22:24;;;;;;;;;;;;;;;17.32;49.54;101480.22;4405923;32;20008;-71
2022/05/09 07:24:50;;;;;;;;;;;;;;;17.35;49.65;101492.72;4404302;32;20045;-72
2022/05/09 07:27:17;;;;;;;;;;;;;;;17.31;49.48;101478.63;4400708;32;19981;-70
2022/05/09 07:29:42;;;;;;;;;;;;;;;17.31;49.15;101460.78;4406508;32;20030;-71
2022/05/09 07:32:08;;;;;;;;;;;;;;;17.30;49.22;101459.97;4400744;32;20010;-70
2022/05/09 07:34:34;;;;;;;;;;;;;;;17.48;48.69;101445.84;4401897;32;20048;-71
2022/05/09 07:37:01;;;;;;;;;;;;;;;17.71;48.40;101447.34;4405599;32;20488;-71
2022/05/09 07:39:26;;;;;;;;;;;;;;;18.01;47.50;101448.50;4398428;32;19977;-71
2022/05/09 07:41:52;;;;;;;;;;;;;;;18.46;46.85;101434.28;4392519;32;19989;-70
2022/05/09 07:44:17;;;;;;;;;;;;;;;18.80;45.97;101417.59;4410641;32;19968;-70
2022/05/09 07:46:44;;;;;;;;;;;;;;;18.89;45.55;101419.63;4395215;32;20807;-71
2022/05/09 07:49:09;;;;;;;;;;;;;;;19.18;45.32;101422.72;4411308;32;20066;-71
2022/05/09 07:51:37;;;;;;;;;;;;;;;19.56;44.17;101426.53;4410486;32;20028;-72
2022/05/09 07:54:03;;;;;;;;;;;;;;;19.53;44.75;101416.06;4406067;32;20450;-72
2022/05/09 07:56:29;;;;;;;;;;;;;;;19.54;44.67;101420.50;4407342;32;20381;-71
2022/05/09 07:58:55;;;;;;;;;;;;;;;19.83;44.08;101411.28;4413025;32;20075;-72
2022/05/09 08:01:21;;;;;;;;;;;;;;;19.84;43.75;101412.84;4399208;32;19961;-71
2022/05/09 08:03:46;;;;;;;;;;;;;;;19.64;43.79;101399.16;4410070;32;19997;-70
2022/05/09 08:06:12;;;;;;;;;;;;;;;19.45;42.73;101392.00;4410129;32;20073;-70
2022/05/09 08:08:40;;;;;;;;;;;;;;;19.48;42.46;101401.66;4411185;32;19989;-69
2022/05/09 08:11:06;;;;;;;;;;;;;;;19.64;41.52;101396.31;4409816;32;20275;-70
2022/05/09 08:13:33;;;;;;;;;;;;;;;20.10;40.46;101413.16;4409057;32;20057;-70
2022/05/09 08:15:59;;;;;;;;;;;;;;;19.65;40.37;101399.97;4413495;32;19973;-70
2022/05/09 08:18:26;;;;;;;;;;;;;;;19.80;40.67;101410.16;4411268;32;20305;-71
2022/05/09 08:20:53;;;;;;;;;;;;;;;20.13;39.73;101409.34;4411129;32;20030;-70
2022/05/09 08:23:19;;;;;;;;;;;;;;;19.99;38.58;101407.19;4410109;32;20422;-70
2022/05/09 08:25:46;;;;;;;;;;;;;;;20.04;38.26;101409.38;4412826;32;19992;-72
2022/05/09 08:28:12;;;;;;;;;;;;;;;19.95;37.54;101404.53;4409051;32;19996;-72
2022/05/09 08:30:38;;;;;;;;;;;;;;;20.18;36.81;101408.66;4410744;32;20395;-72
2022/05/09 08:33:05;;;;;;;;;;;;;;;20.25;36.39;101406.19;4414141;32;19994;-73
2022/05/09 08:35:30;;;;;;;;;;;;;;;20.29;36.39;101423.19;4410481;32;20391;-70
2022/05/09 08:37:56;;;;;;;;;;;;;;;20.08;36.95;101421.41;4411976;32;19977;-72
2022/05/09 08:40:29;;;;;;;;;;;;;;;20.08;36.94;101419.34;4409661;32;20017;-71
2022/05/09 08:43:01;;;;;;;;;;;;;;;20.24;37.17;101410.34;4407925;32;20053;-70
2022/05/09 08:45:32;;;;;;;;;;;;;;;20.57;36.24;101402.44;4411753;32;19996;-70
2022/05/09 08:48:13;;;;;;;;;;;;;;;20.90;36.43;101402.22;4408624;32;20257;-71
2022/05/09 08:53:23;;;;;;;;;;;;;;;21.40;34.95;101404.66;3942655;32;15861422;-71
2022/05/09 08:55:49;;;;;;;;;;;;;;;21.40;34.95;101404.66;4420295;32;20008;-70
2022/05/09 08:58:21;;;;;;;;;;;;;;;20.76;35.24;101403.81;4420153;32;20406;-71
2022/05/09 09:00:49;;;;;;;;;;;;;;;20.89;35.42;101397.81;4418865;32;19989;-72
2022/05/09 09:03:28;;;;;;;;;;;;;;;20.67;35.40;101392.47;4417740;32;20405;-73
2022/05/09 09:05:56;;;;;;;;;;;;;;;20.89;35.29;101392.84;4418857;32;20665;-70
2022/05/09 09:08:30;;;;;;;;;;;;;;;21.15;34.65;101381.59;4417771;32;20039;-70
2022/05/09 09:11:03;;;;;;;;;;;;;;;21.07;34.80;101389.00;4416516;32;19969;-71
2022/05/09 09:19:02;;;;;;;;;;;;;;;21.89;34.40;101374.34;3947666;32;15722583;-72
2022/05/09 09:21:48;;;;;;;;;;;;;;;21.89;34.40;101374.34;4423202;32;20039;-72
2022/05/09 09:27:02;;;;;;;;;;;;;;;21.74;34.34;101362.97;3950646;32;15724543;-72
2022/05/09 09:32:15;;;;;;;;;;;;;;;21.47;34.97;101360.47;3946147;32;15728587;-72
2022/05/09 09:37:19;;;;;;;;;;;;;;;22.83;33.33;101359.75;3945386;32;15722547;-71
2022/05/09 09:39:45;;;;;;;;;;;;;;;22.83;33.33;101359.75;4419913;32;20000;-71
2022/05/09 09:42:11;;;;;;;;;;;;;;;22.94;32.95;101348.38;4408036;32;19966;-71
2022/05/09 09:44:38;;;;;;;;;;;;;;;23.62;32.17;101336.06;4416940;32;20422;-72
2022/05/09 09:49:42;;;;;;;;;;;;;;;23.78;31.51;101326.72;3945293;32;15775510;-72
2022/05/09 09:52:27;;;;;;;;;;;;;;;23.78;31.51;101326.72;4423699;32;20008;-73
2022/05/09 09:54:55;;;;;;;;;;;;;;;23.16;31.51;101316.94;4421643;32;21300;-73
2022/05/09 09:57:23;;;;;;;;;;;;;;;22.78;31.72;101322.41;4423629;32;20019;-72
2022/05/09 09:59:48;;;;;;;;;;;;;;;23.04;31.31;101315.28;4418442;32;20008;-71
2022/05/09 10:02:22;;;;;;;;;;;;;;;23.26;30.50;101306.09;4412661;32;20287;-71
2022/05/09 10:04:48;;;;;;;;;;;;;;;22.78;31.11;101297.38;4392600;32;19957;-71
2022/05/09 10:07:24;;;;;;;;;;;;;;;23.01;31.18;101306.94;4418851;32;20012;-71
2022/05/09 10:10:11;;;;;;;;;;;;;;;22.83;30.33;101295.84;4416629;32;20030;-72
2022/05/09 10:12:39;;;;;;;;;;;;;;;22.73;30.67;101283.75;4421457;32;19958;-72
2022/05/09 10:15:20;;;;;;;;;;;;;;;22.86;30.34;101294.81;4421019;32;20005;-72
2022/05/09 10:17:46;;;;;;;;;;;;;;;22.74;30.07;101284.53;4419968;32;20054;-72
2022/05/09 10:25:59;;;;;;;;;;;;;;;23.76;29.63;101274.69;4421214;32;19992;-72
2022/05/09 10:28:25;;;;;;;;;;;;;;;23.33;30.16;101251.03;4420746;32;20052;-73
2022/05/09 10:30:54;;;;;;;;;;;;;;;23.77;29.50;101262.69;4418460;32;20468;-72
2022/05/09 10:33:31;;;;;;;;;;;;;;;23.99;29.69;101265.66;4417017;32;19968;-72
2022/05/09 10:35:59;;;;;;;;;;;;;;;23.82;29.72;101236.06;4416804;32;20425;-73
2022/05/09 10:38:35;;;;;;;;;;;;;;;23.81;29.86;101231.62;4421589;32;20310;-73
2022/05/09 10:41:09;;;;;;;;;;;;;;;23.86;30.46;101230.03;4420259;32;20490;-73
2022/05/09 10:43:42;;;;;;;;;;;;;;;24.01;30.49;101227.75;4415434;32;20019;-72
2022/05/09 10:46:10;;;;;;;;;;;;;;;23.97;30.60;101228.03;4419137;32;19973;-73
2022/05/09 10:48:41;;;;;;;;;;;;;;;24.18;30.61;101214.19;4416894;32;19997;-73
2022/05/09 10:53:53;;;;;;;;;;;;;;;24.58;30.81;101210.78;3960765;31;15716489;-71
2022/05/09 10:59:02;;;;;;;;;;;;;;;25.01;31.00;101207.03;3948827;32;15732455;-73
2022/05/09 11:01:34;;;;;;;;;;;;;;;25.01;31.00;101207.03;4421520;32;19985;-73
2022/05/09 11:04:00;;;;;;;;;;;;;;;24.94;31.04;101203.91;4405464;32;20029;-73
2022/05/09 11:11:55;;;;;;;;;;;;;;;25.21;31.32;101200.19;3953761;31;15728188;-73
2022/05/09 11:22:17;;;;;;;;;;;;;;;25.66;30.96;101181.41;3942452;32;15722975;-73
2022/05/09 11:25:02;;;;;;;;;;;;;;;25.34;31.22;101172.37;4419674;32;20001;-73
2022/05/09 11:27:48;;;;;;;;;;;;;;;25.57;31.02;101170.19;4416164;32;20396;-73
2022/05/09 11:30:22;;;;;;;;;;;;;;;25.68;31.00;101154.91;4419016;32;19996;-72
2022/05/09 11:32:55;;;;;;;;;;;;;;;25.52;31.10;101147.16;4417467;32;20435;-73
2022/05/09 11:35:26;;;;;;;;;;;;;;;25.76;30.93;101141.47;4417838;32;20432;-73
2022/05/09 11:38:07;;;;;;;;;;;;;;;26.01;30.52;101131.66;4407803;32;20017;-73
2022/05/09 11:48:26;;;;;;;;;;;;;;;27.15;29.49;101119.41;3944532;32;15726466;-72
2022/05/09 11:53:31;;;;;;;;;;;;;;;27.58;29.32;101102.78;3948395;32;15723576;-71
2022/05/09 11:55:57;;;;;;;;;;;;;;;27.58;29.32;101102.78;4422206;32;21307;-71
2022/05/09 11:58:24;;;;;;;;;;;;;;;27.50;29.05;101127.09;4422404;32;20009;-71
2022/05/09 12:00:51;;;;;;;;;;;;;;;27.28;29.62;101102.19;4418194;32;20425;-71
2022/05/09 12:03:37;;;;;;;;;;;;;;;27.29;29.46;101105.84;4423141;32;20001;-72
2022/05/09 12:06:04;;;;;;;;;;;;;;;26.44;30.75;101127.56;4430369;32;19989;-72
2022/05/09 12:08:47;;;;;;;;;;;;;;;25.64;32.12;101116.94;4419074;32;19980;-71
2022/05/09 12:13:53;;;;;;;;;;;;;;;25.25;33.16;101102.75;3947951;32;15722570;-74
2022/05/09 12:19:30;;;;;;;;;;;;;;;24.07;34.75;101090.50;3945015;32;15727517;-74
2022/05/09 12:22:18;;;;;;;;;;;;;;;24.07;34.75;101090.50;4418202;32;20054;-74
2022/05/09 12:24:44;;;;;;;;;;;;;;;23.48;35.38;101085.75;4416311;32;20012;-73
2022/05/09 12:27:30;;;;;;;;;;;;;;;22.83;36.74;101081.34;4420404;32;20101;-71
2022/05/09 12:29:58;;;;;;;;;;;;;;;22.65;37.16;101076.09;4412104;32;20021;-73
2022/05/09 12:32:24;;;;;;;;;;;;;;;22.40;37.87;101074.06;4419486;32;20153;-71
2022/05/09 12:34:51;;;;;;;;;;;;;;;22.26;38.01;101060.69;4405755;32;19980;-72
2022/05/09 12:37:19;;;;;;;;;;;;;;;21.92;38.80;101061.78;4421030;32;20013;-72
2022/05/09 12:39:47;;;;;;;;;;;;;;;22.10;38.70;101054.84;4418382;32;20084;-72
2022/05/09 12:42:23;;;;;;;;;;;;;;;22.13;38.89;101053.84;4421514;32;19957;-72
2022/05/09 12:44:50;;;;;;;;;;;;;;;22.30;38.64;101054.75;4421817;32;19953;-72
2022/05/09 12:47:22;;;;;;;;;;;;;;;22.42;38.49;101056.34;4420422;32;20012;-73
2022/05/09 12:49:51;;;;;;;;;;;;;;;22.64;38.25;101040.06;4423427;32;19949;-72
2022/05/09 12:52:19;;;;;;;;;;;;;;;22.77;38.10;101033.87;4404895;32;20337;-72
2022/05/09 12:55:52;;;;;;;;;;;;;;;22.85;38.21;101037.78;4421786;32;19993;-72
2022/05/09 12:57:33;;;;;;;;;;;;;;;23.13;37.30;101032.91;4419178;32;20029;-73
2022/05/09 13:00:06;;;;;;;;;;;;;;;22.45;38.47;101026.63;4419192;32;20403;-73
2022/05/09 13:02:32;;;;;;;;;;;;;;;22.60;38.54;101021.53;4418876;32;20030;-73
2022/05/09 13:04:58;;;;;;;;;;;;;;;22.96;38.02;101024.28;4419881;32;20001;-73
2022/05/09 13:07:24;;;;;;;;;;;;;;;23.23;37.50;101017.03;4416864;32;20014;-71
2022/05/09 13:09:52;;;;;;;;;;;;;;;22.77;38.12;101008.81;4405410;32;20026;-71
2022/05/09 13:12:28;;;;;;;;;;;;;;;22.62;38.56;100999.66;4418419;32;20012;-72
2022/05/09 13:14:56;;;;;;;;;;;;;;;22.90;38.16;100994.00;4420589;32;19985;-71
2022/05/09 13:17:42;;;;;;;;;;;;;;;22.95;38.10;100984.62;4418037;32;20005;-71
2022/05/09 13:20:11;;;;;;;;;;;;;;;23.20;37.84;100980.75;4417869;32;19993;-71
2022/05/09 13:25:33;;;;;;;;;;;;;;;24.39;36.19;100956.59;3926047;32;15728159;-71
2022/05/09 13:28:01;;;;;;;;;;;;;;;24.39;36.19;100956.59;4394861;32;19990;-70
2022/05/09 13:30:31;;;;;;;;;;;;;;;23.98;36.81;100944.94;4400790;32;19989;-72
2022/05/09 13:32:57;;;;;;;;;;;;;;;24.30;36.25;100951.87;4395075;32;19980;-70
2022/05/09 13:35:28;;;;;;;;;;;;;;;24.77;35.62;100947.00;4395340;32;19962;-71
2022/05/09 13:37:53;;;;;;;;;;;;;;;25.37;34.68;100960.19;4395170;32;20367;-71
2022/05/09 13:40:21;;;;;;;;;;;;;;;26.31;33.06;100953.50;4392231;32;20236;-71
2022/05/09 13:42:47;;;;;;;;;;;;;;;26.20;33.33;100951.53;4394712;32;19997;-70
2022/05/09 13:45:18;;;;;;;;;;;;;;;27.17;31.92;100931.81;4396057;32;20001;-71
2022/05/09 13:47:47;;;;;;;;;;;;;;;27.93;31.28;100934.75;4395860;32;19976;-71
2022/05/09 13:50:13;;;;;;;;;;;;;;;28.90;29.48;100929.50;4385042;32;19950;-70